sensor_id;sensor_type;location;lat;lon;timestamp;P1;durP1;ratioP1;P2;durP2;ratioP2
22284;SDS011;11311;52.192;20.900;2023-04-02T00:06:37;8.18;;;6.80;;
22284;SDS011;11311;52.192;20.900;2023-04-02T00:09:27;6.82;;;6.13;;
22284;SDS011;11311;52.192;20.900;2023-04-02T00:11:58;8.52;;;7.60;;
22284;SDS011;11311;52.192;20.900;2023-04-02T00:14:45;10.27;;;7.30;;
22284;SDS011;11311;52.192;20.900;2023-04-02T00:17:16;9.57;;;7.53;;
22284;SDS011;11311;52.192;20.900;2023-04-02T00:19:45;8.02;;;6.90;;
22284;SDS011;11311;52.192;20.900;2023-04-02T00:22:18;9.88;;;7.60;;
22284;SDS011;11311;52.192;20.900;2023-04-02T00:24:50;8.00;;;6.63;;
22284;SDS011;11311;52.192;20.900;2023-04-02T00:27:20;7.80;;;6.95;;
22284;SDS011;11311;52.192;20.900;2023-04-02T00:29:50;8.50;;;7.07;;
22284;SDS011;11311;52.192;20.900;2023-04-02T00:32:21;12.10;;;7.20;;
22284;SDS011;11311;52.192;20.900;2023-04-02T00:34:52;11.25;;;8.02;;
22284;SDS011;11311;52.192;20.900;2023-04-02T00:37:22;10.00;;;8.05;;
22284;SDS011;11311;52.192;20.900;2023-04-02T00:39:57;8.55;;;7.75;;
22284;SDS011;11311;52.192;20.900;2023-04-02T00:42:33;10.07;;;8.82;;
22284;SDS011;11311;52.192;20.900;2023-04-02T00:45:02;10.50;;;8.82;;
22284;SDS011;11311;52.192;20.900;2023-04-02T00:47:33;9.30;;;8.20;;
22284;SDS011;11311;52.192;20.900;2023-04-02T00:50:04;10.77;;;8.60;;
22284;SDS011;11311;52.192;20.900;2023-04-02T00:52:35;11.30;;;8.77;;
22284;SDS011;11311;52.192;20.900;2023-04-02T00:55:06;12.27;;;9.75;;
22284;SDS011;11311;52.192;20.900;2023-04-02T00:57:39;10.52;;;9.43;;
22284;SDS011;11311;52.192;20.900;2023-04-02T01:00:17;12.80;;;10.02;;
22284;SDS011;11311;52.192;20.900;2023-04-02T01:05:43;13.30;;;10.18;;
22284;SDS011;11311;52.192;20.900;2023-04-02T01:08:14;12.90;;;9.63;;
22284;SDS011;11311;52.192;20.900;2023-04-02T01:10:53;12.98;;;8.55;;
22284;SDS011;11311;52.192;20.900;2023-04-02T01:13:28;10.57;;;9.10;;
22284;SDS011;11311;52.192;20.900;2023-04-02T01:16:03;9.48;;;8.20;;
22284;SDS011;11311;52.192;20.900;2023-04-02T01:18:40;9.35;;;8.32;;
22284;SDS011;11311;52.192;20.900;2023-04-02T01:21:24;9.68;;;7.70;;
22284;SDS011;11311;52.192;20.900;2023-04-02T01:23:59;8.68;;;7.40;;
22284;SDS011;11311;52.192;20.900;2023-04-02T01:26:38;9.60;;;7.25;;
22284;SDS011;11311;52.192;20.900;2023-04-02T01:29:15;7.25;;;6.50;;
22284;SDS011;11311;52.192;20.900;2023-04-02T01:31:46;8.40;;;7.43;;
22284;SDS011;11311;52.192;20.900;2023-04-02T01:34:17;7.85;;;6.30;;
22284;SDS011;11311;52.192;20.900;2023-04-02T01:36:53;8.32;;;6.40;;
22284;SDS011;11311;52.192;20.900;2023-04-02T01:39:36;7.57;;;6.78;;
22284;SDS011;11311;52.192;20.900;2023-04-02T01:42:11;7.88;;;6.65;;
22284;SDS011;11311;52.192;20.900;2023-04-02T01:44:47;7.25;;;6.55;;
22284;SDS011;11311;52.192;20.900;2023-04-02T01:47:18;11.90;;;7.25;;
22284;SDS011;11311;52.192;20.900;2023-04-02T01:49:51;11.45;;;7.60;;
22284;SDS011;11311;52.192;20.900;2023-04-02T01:52:24;10.07;;;8.35;;
22284;SDS011;11311;52.192;20.900;2023-04-02T01:55:02;8.38;;;7.45;;
22284;SDS011;11311;52.192;20.900;2023-04-02T01:57:31;8.68;;;7.80;;
22284;SDS011;11311;52.192;20.900;2023-04-02T02:00:02;7.90;;;7.10;;
22284;SDS011;11311;52.192;20.900;2023-04-02T02:02:39;9.25;;;6.45;;
22284;SDS011;11311;52.192;20.900;2023-04-02T02:07:41;7.60;;;6.20;;
22284;SDS011;11311;52.192;20.900;2023-04-02T02:10:14;6.20;;;5.60;;
22284;SDS011;11311;52.192;20.900;2023-04-02T02:12:45;8.00;;;5.65;;
22284;SDS011;11311;52.192;20.900;2023-04-02T02:15:17;6.78;;;6.07;;
22284;SDS011;11311;52.192;20.900;2023-04-02T02:17:47;6.88;;;6.00;;
22284;SDS011;11311;52.192;20.900;2023-04-02T02:20:16;7.65;;;6.00;;
22284;SDS011;11311;52.192;20.900;2023-04-02T02:22:46;6.88;;;6.18;;
22284;SDS011;11311;52.192;20.900;2023-04-02T02:25:17;8.48;;;6.95;;
22284;SDS011;11311;52.192;20.900;2023-04-02T02:27:49;6.70;;;6.00;;
22284;SDS011;11311;52.192;20.900;2023-04-02T02:30:26;6.70;;;6.00;;
22284;SDS011;11311;52.192;20.900;2023-04-02T02:32:58;6.43;;;5.72;;
22284;SDS011;11311;52.192;20.900;2023-04-02T02:35:31;5.93;;;5.32;;
22284;SDS011;11311;52.192;20.900;2023-04-02T02:38:19;5.93;;;5.43;;
22284;SDS011;11311;52.192;20.900;2023-04-02T02:40:57;7.25;;;6.15;;
22284;SDS011;11311;52.192;20.900;2023-04-02T02:43:30;7.47;;;5.80;;
22284;SDS011;11311;52.192;20.900;2023-04-02T02:46:02;6.88;;;6.28;;
22284;SDS011;11311;52.192;20.900;2023-04-02T02:48:33;6.55;;;5.95;;
22284;SDS011;11311;52.192;20.900;2023-04-02T02:51:06;7.95;;;5.72;;
22284;SDS011;11311;52.192;20.900;2023-04-02T02:53:44;6.53;;;5.93;;
22284;SDS011;11311;52.192;20.900;2023-04-02T02:56:14;6.90;;;5.93;;
22284;SDS011;11311;52.192;20.900;2023-04-02T02:58:43;6.43;;;5.82;;
22284;SDS011;11311;52.192;20.900;2023-04-02T03:01:19;12.02;;;6.35;;
22284;SDS011;11311;52.192;20.900;2023-04-02T03:03:51;6.72;;;6.13;;
22284;SDS011;11311;52.192;20.900;2023-04-02T03:06:22;7.18;;;6.47;;
22284;SDS011;11311;52.192;20.900;2023-04-02T03:08:58;7.63;;;6.93;;
22284;SDS011;11311;52.192;20.900;2023-04-02T03:11:35;7.68;;;6.88;;
22284;SDS011;11311;52.192;20.900;2023-04-02T03:14:13;7.03;;;6.40;;
22284;SDS011;11311;52.192;20.900;2023-04-02T03:16:47;8.30;;;7.50;;
22284;SDS011;11311;52.192;20.900;2023-04-02T03:19:22;7.82;;;7.03;;
22284;SDS011;11311;52.192;20.900;2023-04-02T03:21:57;9.00;;;7.25;;
22284;SDS011;11311;52.192;20.900;2023-04-02T03:24:38;8.55;;;7.63;;
22284;SDS011;11311;52.192;20.900;2023-04-02T03:27:14;9.68;;;8.23;;
22284;SDS011;11311;52.192;20.900;2023-04-02T03:29:49;9.77;;;7.30;;
22284;SDS011;11311;52.192;20.900;2023-04-02T03:32:28;9.38;;;7.93;;
22284;SDS011;11311;52.192;20.900;2023-04-02T03:35:00;7.90;;;6.93;;
22284;SDS011;11311;52.192;20.900;2023-04-02T03:37:31;8.45;;;7.55;;
22284;SDS011;11311;52.192;20.900;2023-04-02T03:40:05;8.18;;;7.32;;
22284;SDS011;11311;52.192;20.900;2023-04-02T03:42:38;10.23;;;7.68;;
22284;SDS011;11311;52.192;20.900;2023-04-02T03:45:10;10.07;;;9.07;;
22284;SDS011;11311;52.192;20.900;2023-04-02T03:47:45;10.85;;;8.60;;
22284;SDS011;11311;52.192;20.900;2023-04-02T03:50:18;10.68;;;8.82;;
22284;SDS011;11311;52.192;20.900;2023-04-02T03:52:55;11.45;;;9.95;;
22284;SDS011;11311;52.192;20.900;2023-04-02T03:55:25;11.63;;;9.57;;
22284;SDS011;11311;52.192;20.900;2023-04-02T03:57:58;14.07;;;11.48;;
22284;SDS011;11311;52.192;20.900;2023-04-02T04:00:33;13.93;;;12.43;;
22284;SDS011;11311;52.192;20.900;2023-04-02T04:03:08;14.35;;;12.25;;
22284;SDS011;11311;52.192;20.900;2023-04-02T04:05:42;18.17;;;12.60;;
22284;SDS011;11311;52.192;20.900;2023-04-02T04:08:15;18.60;;;14.52;;
22284;SDS011;11311;52.192;20.900;2023-04-02T04:10:48;18.42;;;14.25;;
22284;SDS011;11311;52.192;20.900;2023-04-02T04:13:20;14.57;;;12.85;;
22284;SDS011;11311;52.192;20.900;2023-04-02T04:15:53;16.20;;;13.70;;
22284;SDS011;11311;52.192;20.900;2023-04-02T04:18:28;19.42;;;14.70;;
22284;SDS011;11311;52.192;20.900;2023-04-02T04:21:11;21.02;;;16.20;;
22284;SDS011;11311;52.192;20.900;2023-04-02T04:23:46;19.48;;;15.65;;
22284;SDS011;11311;52.192;20.900;2023-04-02T04:26:20;24.02;;;17.42;;
22284;SDS011;11311;52.192;20.900;2023-04-02T04:28:58;24.48;;;16.90;;
22284;SDS011;11311;52.192;20.900;2023-04-02T04:31:35;24.05;;;15.77;;
22284;SDS011;11311;52.192;20.900;2023-04-02T04:34:10;22.35;;;16.92;;
22284;SDS011;11311;52.192;20.900;2023-04-02T04:36:43;20.67;;;16.23;;
22284;SDS011;11311;52.192;20.900;2023-04-02T04:39:27;20.48;;;14.82;;
22284;SDS011;11311;52.192;20.900;2023-04-02T04:42:02;19.08;;;15.05;;
22284;SDS011;11311;52.192;20.900;2023-04-02T04:44:36;18.58;;;15.43;;
22284;SDS011;11311;52.192;20.900;2023-04-02T04:47:09;21.17;;;15.98;;
22284;SDS011;11311;52.192;20.900;2023-04-02T04:49:43;18.35;;;15.52;;
22284;SDS011;11311;52.192;20.900;2023-04-02T04:52:16;19.08;;;15.57;;
22284;SDS011;11311;52.192;20.900;2023-04-02T04:54:48;18.45;;;14.43;;
22284;SDS011;11311;52.192;20.900;2023-04-02T04:57:21;19.70;;;16.20;;
22284;SDS011;11311;52.192;20.900;2023-04-02T04:59:59;19.55;;;15.93;;
22284;SDS011;11311;52.192;20.900;2023-04-02T05:02:37;17.73;;;14.70;;
22284;SDS011;11311;52.192;20.900;2023-04-02T05:05:17;24.60;;;14.85;;
22284;SDS011;11311;52.192;20.900;2023-04-02T05:07:49;16.35;;;13.52;;
22284;SDS011;11311;52.192;20.900;2023-04-02T05:12:51;15.13;;;12.93;;
22284;SDS011;11311;52.192;20.900;2023-04-02T05:15:25;17.25;;;13.40;;
22284;SDS011;11311;52.192;20.900;2023-04-02T05:18:07;16.60;;;13.63;;
22284;SDS011;11311;52.192;20.900;2023-04-02T05:20:44;15.45;;;13.52;;
22284;SDS011;11311;52.192;20.900;2023-04-02T05:23:17;20.58;;;16.35;;
22284;SDS011;11311;52.192;20.900;2023-04-02T05:25:51;21.90;;;16.70;;
22284;SDS011;11311;52.192;20.900;2023-04-02T05:28:24;22.95;;;17.15;;
22284;SDS011;11311;52.192;20.900;2023-04-02T05:30:57;23.83;;;18.75;;
22284;SDS011;11311;52.192;20.900;2023-04-02T05:33:30;26.00;;;19.73;;
22284;SDS011;11311;52.192;20.900;2023-04-02T05:36:06;23.27;;;18.88;;
22284;SDS011;11311;52.192;20.900;2023-04-02T05:38:43;26.17;;;20.38;;
22284;SDS011;11311;52.192;20.900;2023-04-02T05:41:21;24.23;;;18.42;;
22284;SDS011;11311;52.192;20.900;2023-04-02T05:43:56;21.42;;;16.45;;
22284;SDS011;11311;52.192;20.900;2023-04-02T05:46:32;20.50;;;15.75;;
22284;SDS011;11311;52.192;20.900;2023-04-02T05:49:05;23.95;;;17.23;;
22284;SDS011;11311;52.192;20.900;2023-04-02T05:51:41;25.77;;;19.50;;
22284;SDS011;11311;52.192;20.900;2023-04-02T05:54:15;26.60;;;20.38;;
22284;SDS011;11311;52.192;20.900;2023-04-02T05:56:54;25.65;;;20.05;;
22284;SDS011;11311;52.192;20.900;2023-04-02T05:59:26;25.08;;;19.50;;
22284;SDS011;11311;52.192;20.900;2023-04-02T06:01:57;29.67;;;20.85;;
22284;SDS011;11311;52.192;20.900;2023-04-02T06:04:34;24.05;;;17.75;;
22284;SDS011;11311;52.192;20.900;2023-04-02T06:07:10;25.45;;;16.85;;
22284;SDS011;11311;52.192;20.900;2023-04-02T06:09:50;19.80;;;15.25;;
22284;SDS011;11311;52.192;20.900;2023-04-02T06:12:23;19.67;;;15.75;;
22284;SDS011;11311;52.192;20.900;2023-04-02T06:14:56;19.15;;;15.95;;
22284;SDS011;11311;52.192;20.900;2023-04-02T06:17:28;19.65;;;15.20;;
22284;SDS011;11311;52.192;20.900;2023-04-02T06:19:58;18.23;;;14.07;;
22284;SDS011;11311;52.192;20.900;2023-04-02T06:22:32;21.50;;;14.55;;
22284;SDS011;11311;52.192;20.900;2023-04-02T06:25:04;15.30;;;13.57;;
22284;SDS011;11311;52.192;20.900;2023-04-02T06:27:40;16.27;;;13.30;;
22284;SDS011;11311;52.192;20.900;2023-04-02T06:30:13;14.40;;;12.07;;
22284;SDS011;11311;52.192;20.900;2023-04-02T06:32:48;16.88;;;13.38;;
22284;SDS011;11311;52.192;20.900;2023-04-02T06:35:18;12.43;;;10.98;;
22284;SDS011;11311;52.192;20.900;2023-04-02T06:37:57;13.75;;;11.68;;
22284;SDS011;11311;52.192;20.900;2023-04-02T06:40:34;16.60;;;11.52;;
22284;SDS011;11311;52.192;20.900;2023-04-02T06:43:25;14.45;;;11.73;;
22284;SDS011;11311;52.192;20.900;2023-04-02T06:46:19;13.95;;;10.85;;
22284;SDS011;11311;52.192;20.900;2023-04-02T06:49:00;11.07;;;9.73;;
22284;SDS011;11311;52.192;20.900;2023-04-02T06:51:33;10.90;;;9.25;;
22284;SDS011;11311;52.192;20.900;2023-04-02T06:54:06;9.32;;;8.30;;
22284;SDS011;11311;52.192;20.900;2023-04-02T06:56:42;9.60;;;8.40;;
22284;SDS011;11311;52.192;20.900;2023-04-02T06:59:18;9.85;;;8.70;;
22284;SDS011;11311;52.192;20.900;2023-04-02T07:01:47;10.82;;;9.60;;
22284;SDS011;11311;52.192;20.900;2023-04-02T07:04:18;11.00;;;9.23;;
22284;SDS011;11311;52.192;20.900;2023-04-02T07:06:50;9.73;;;8.73;;
22284;SDS011;11311;52.192;20.900;2023-04-02T07:09:24;10.88;;;8.32;;
22284;SDS011;11311;52.192;20.900;2023-04-02T07:11:56;12.27;;;8.98;;
22284;SDS011;11311;52.192;20.900;2023-04-02T07:14:25;9.85;;;8.27;;
22284;SDS011;11311;52.192;20.900;2023-04-02T07:16:54;12.10;;;9.48;;
22284;SDS011;11311;52.192;20.900;2023-04-02T07:19:23;11.77;;;9.07;;
22284;SDS011;11311;52.192;20.900;2023-04-02T07:21:56;15.43;;;10.13;;
22284;SDS011;11311;52.192;20.900;2023-04-02T07:24:32;10.57;;;8.85;;
22284;SDS011;11311;52.192;20.900;2023-04-02T07:29:30;12.73;;;9.68;;
22284;SDS011;11311;52.192;20.900;2023-04-02T07:31:59;12.23;;;9.80;;
22284;SDS011;11311;52.192;20.900;2023-04-02T07:34:27;10.60;;;9.40;;
22284;SDS011;11311;52.192;20.900;2023-04-02T07:36:56;10.57;;;9.43;;
22284;SDS011;11311;52.192;20.900;2023-04-02T07:39:25;12.65;;;9.57;;
22284;SDS011;11311;52.192;20.900;2023-04-02T07:41:56;11.75;;;10.35;;
22284;SDS011;11311;52.192;20.900;2023-04-02T07:44:26;11.50;;;10.25;;
22284;SDS011;11311;52.192;20.900;2023-04-02T07:46:56;11.88;;;10.68;;
22284;SDS011;11311;52.192;20.900;2023-04-02T07:49:25;11.18;;;9.95;;
22284;SDS011;11311;52.192;20.900;2023-04-02T07:51:53;13.18;;;10.25;;
22284;SDS011;11311;52.192;20.900;2023-04-02T07:54:22;13.20;;;11.38;;
22284;SDS011;11311;52.192;20.900;2023-04-02T07:56:53;12.63;;;11.15;;
22284;SDS011;11311;52.192;20.900;2023-04-02T07:59:23;11.75;;;10.52;;
22284;SDS011;11311;52.192;20.900;2023-04-02T08:01:52;12.00;;;10.77;;
22284;SDS011;11311;52.192;20.900;2023-04-02T08:04:21;14.50;;;10.15;;
22284;SDS011;11311;52.192;20.900;2023-04-02T08:06:50;13.43;;;11.18;;
22284;SDS011;11311;52.192;20.900;2023-04-02T08:09:19;12.60;;;10.60;;
22284;SDS011;11311;52.192;20.900;2023-04-02T08:11:48;13.02;;;10.60;;
22284;SDS011;11311;52.192;20.900;2023-04-02T08:14:17;14.23;;;11.10;;
22284;SDS011;11311;52.192;20.900;2023-04-02T08:16:48;11.40;;;9.75;;
22284;SDS011;11311;52.192;20.900;2023-04-02T08:19:18;11.45;;;10.13;;
22284;SDS011;11311;52.192;20.900;2023-04-02T08:21:48;12.75;;;11.38;;
22284;SDS011;11311;52.192;20.900;2023-04-02T08:24:17;13.13;;;11.45;;
22284;SDS011;11311;52.192;20.900;2023-04-02T08:26:47;17.35;;;11.30;;
22284;SDS011;11311;52.192;20.900;2023-04-02T08:29:17;13.63;;;11.15;;
22284;SDS011;11311;52.192;20.900;2023-04-02T08:31:47;12.10;;;10.70;;
22284;SDS011;11311;52.192;20.900;2023-04-02T08:36:45;12.48;;;10.50;;
22284;SDS011;11311;52.192;20.900;2023-04-02T08:39:14;13.50;;;11.88;;
22284;SDS011;11311;52.192;20.900;2023-04-02T08:41:44;12.55;;;11.20;;
22284;SDS011;11311;52.192;20.900;2023-04-02T08:44:18;17.08;;;11.95;;
22284;SDS011;11311;52.192;20.900;2023-04-02T08:46:55;12.15;;;10.52;;
22284;SDS011;11311;52.192;20.900;2023-04-02T08:49:29;13.43;;;10.00;;
22284;SDS011;11311;52.192;20.900;2023-04-02T08:51:59;12.55;;;10.85;;
22284;SDS011;11311;52.192;20.900;2023-04-02T08:54:28;13.13;;;11.68;;
22284;SDS011;11311;52.192;20.900;2023-04-02T08:57:01;12.02;;;10.25;;
22284;SDS011;11311;52.192;20.900;2023-04-02T08:59:33;12.25;;;10.80;;
22284;SDS011;11311;52.192;20.900;2023-04-02T09:02:15;14.20;;;11.90;;
22284;SDS011;11311;52.192;20.900;2023-04-02T09:04:50;12.27;;;10.95;;
22284;SDS011;11311;52.192;20.900;2023-04-02T09:07:19;14.35;;;11.50;;
22284;SDS011;11311;52.192;20.900;2023-04-02T09:09:48;12.13;;;10.02;;
22284;SDS011;11311;52.192;20.900;2023-04-02T09:12:18;12.07;;;9.85;;
22284;SDS011;11311;52.192;20.900;2023-04-02T09:14:53;10.75;;;9.55;;
22284;SDS011;11311;52.192;20.900;2023-04-02T09:17:33;10.55;;;9.52;;
22284;SDS011;11311;52.192;20.900;2023-04-02T09:20:20;10.07;;;8.63;;
22284;SDS011;11311;52.192;20.900;2023-04-02T09:22:50;10.48;;;8.80;;
22284;SDS011;11311;52.192;20.900;2023-04-02T09:25:20;9.20;;;8.30;;
22284;SDS011;11311;52.192;20.900;2023-04-02T09:27:52;10.45;;;9.18;;
22284;SDS011;11311;52.192;20.900;2023-04-02T09:30:24;9.85;;;8.88;;
22284;SDS011;11311;52.192;20.900;2023-04-02T09:32:59;10.40;;;8.80;;
22284;SDS011;11311;52.192;20.900;2023-04-02T09:35:34;10.60;;;8.77;;
22284;SDS011;11311;52.192;20.900;2023-04-02T09:38:14;9.52;;;8.35;;
22284;SDS011;11311;52.192;20.900;2023-04-02T09:40:46;13.68;;;8.00;;
22284;SDS011;11311;52.192;20.900;2023-04-02T09:43:18;10.93;;;8.48;;
22284;SDS011;11311;52.192;20.900;2023-04-02T09:45:55;9.18;;;8.20;;
22284;SDS011;11311;52.192;20.900;2023-04-02T09:48:28;9.52;;;8.30;;
22284;SDS011;11311;52.192;20.900;2023-04-02T09:51:03;8.25;;;7.38;;
22284;SDS011;11311;52.192;20.900;2023-04-02T09:53:34;10.48;;;7.82;;
22284;SDS011;11311;52.192;20.900;2023-04-02T09:56:11;8.88;;;7.97;;
22284;SDS011;11311;52.192;20.900;2023-04-02T09:58:43;9.25;;;7.78;;
22284;SDS011;11311;52.192;20.900;2023-04-02T10:01:26;8.30;;;7.20;;
22284;SDS011;11311;52.192;20.900;2023-04-02T10:03:58;7.25;;;6.55;;
22284;SDS011;11311;52.192;20.900;2023-04-02T10:06:28;8.80;;;6.72;;
22284;SDS011;11311;52.192;20.900;2023-04-02T10:08:58;8.70;;;6.78;;
22284;SDS011;11311;52.192;20.900;2023-04-02T10:11:46;7.68;;;6.90;;
22284;SDS011;11311;52.192;20.900;2023-04-02T10:14:17;6.97;;;5.77;;
22284;SDS011;11311;52.192;20.900;2023-04-02T10:16:47;7.25;;;6.03;;
22284;SDS011;11311;52.192;20.900;2023-04-02T10:19:24;5.90;;;5.32;;
22284;SDS011;11311;52.192;20.900;2023-04-02T10:21:55;6.50;;;5.72;;
22284;SDS011;11311;52.192;20.900;2023-04-02T10:24:26;6.25;;;5.60;;
22284;SDS011;11311;52.192;20.900;2023-04-02T10:26:57;7.85;;;6.40;;
22284;SDS011;11311;52.192;20.900;2023-04-02T10:32:22;6.68;;;5.32;;
22284;SDS011;11311;52.192;20.900;2023-04-02T10:34:56;7.55;;;5.95;;
22284;SDS011;11311;52.192;20.900;2023-04-02T10:40:18;8.15;;;5.95;;
22284;SDS011;11311;52.192;20.900;2023-04-02T10:42:53;9.27;;;5.80;;
22284;SDS011;11311;52.192;20.900;2023-04-02T10:45:33;6.00;;;5.50;;
22284;SDS011;11311;52.192;20.900;2023-04-02T10:48:05;6.05;;;5.45;;
22284;SDS011;11311;52.192;20.900;2023-04-02T10:50:43;7.38;;;6.38;;
22284;SDS011;11311;52.192;20.900;2023-04-02T10:53:16;7.78;;;5.85;;
22284;SDS011;11311;52.192;20.900;2023-04-02T10:55:47;6.50;;;5.53;;
22284;SDS011;11311;52.192;20.900;2023-04-02T10:58:21;6.70;;;6.05;;
22284;SDS011;11311;52.192;20.900;2023-04-02T11:00:52;6.50;;;5.55;;
22284;SDS011;11311;52.192;20.900;2023-04-02T11:03:27;6.25;;;5.65;;
22284;SDS011;11311;52.192;20.900;2023-04-02T11:06:03;6.28;;;5.68;;
22284;SDS011;11311;52.192;20.900;2023-04-02T11:08:37;7.93;;;5.35;;
22284;SDS011;11311;52.192;20.900;2023-04-02T11:11:09;7.07;;;5.97;;
22284;SDS011;11311;52.192;20.900;2023-04-02T11:13:43;7.72;;;6.32;;
22284;SDS011;11311;52.192;20.900;2023-04-02T11:16:15;7.70;;;6.20;;
22284;SDS011;11311;52.192;20.900;2023-04-02T11:21:47;7.18;;;6.45;;
22284;SDS011;11311;52.192;20.900;2023-04-02T11:24:30;7.88;;;6.68;;
22284;SDS011;11311;52.192;20.900;2023-04-02T11:27:12;8.25;;;7.40;;
22284;SDS011;11311;52.192;20.900;2023-04-02T11:29:44;8.57;;;7.68;;
22284;SDS011;11311;52.192;20.900;2023-04-02T11:32:24;9.32;;;8.40;;
22284;SDS011;11311;52.192;20.900;2023-04-02T11:35:01;10.80;;;8.70;;
22284;SDS011;11311;52.192;20.900;2023-04-02T11:37:49;9.40;;;8.48;;
22284;SDS011;11311;52.192;20.900;2023-04-02T11:46:38;13.02;;;10.80;;
22284;SDS011;11311;52.192;20.900;2023-04-02T11:52:25;11.90;;;10.43;;
22284;SDS011;11311;52.192;20.900;2023-04-02T11:54:59;13.82;;;10.10;;
22284;SDS011;11311;52.192;20.900;2023-04-02T11:57:36;14.02;;;10.63;;
22284;SDS011;11311;52.192;20.900;2023-04-02T12:00:28;12.32;;;10.23;;
22284;SDS011;11311;52.192;20.900;2023-04-02T12:03:28;13.23;;;9.88;;
22284;SDS011;11311;52.192;20.900;2023-04-02T12:06:04;11.10;;;9.43;;
22284;SDS011;11311;52.192;20.900;2023-04-02T12:08:41;10.60;;;9.50;;
22284;SDS011;11311;52.192;20.900;2023-04-02T12:11:32;10.10;;;9.07;;
22284;SDS011;11311;52.192;20.900;2023-04-02T12:14:02;8.55;;;7.68;;
22284;SDS011;11311;52.192;20.900;2023-04-02T12:16:35;11.57;;;10.35;;
22284;SDS011;11311;52.192;20.900;2023-04-02T12:21:35;10.77;;;9.23;;
22284;SDS011;11311;52.192;20.900;2023-04-02T12:24:05;11.90;;;9.85;;
22284;SDS011;11311;52.192;20.900;2023-04-02T12:26:42;9.60;;;8.60;;
22284;SDS011;11311;52.192;20.900;2023-04-02T12:29:17;10.00;;;8.80;;
22284;SDS011;11311;52.192;20.900;2023-04-02T12:31:52;9.52;;;8.55;;
22284;SDS011;11311;52.192;20.900;2023-04-02T12:34:23;11.30;;;10.20;;
22284;SDS011;11311;52.192;20.900;2023-04-02T12:36:54;9.90;;;8.98;;
22284;SDS011;11311;52.192;20.900;2023-04-02T12:39:25;9.77;;;8.75;;
22284;SDS011;11311;52.192;20.900;2023-04-02T12:41:56;11.70;;;9.13;;
22284;SDS011;11311;52.192;20.900;2023-04-02T12:44:26;10.10;;;9.05;;
22284;SDS011;11311;52.192;20.900;2023-04-02T12:46:55;10.05;;;9.05;;
22284;SDS011;11311;52.192;20.900;2023-04-02T12:49:29;10.05;;;9.05;;
22284;SDS011;11311;52.192;20.900;2023-04-02T12:52:01;9.82;;;8.82;;
22284;SDS011;11311;52.192;20.900;2023-04-02T12:54:33;9.70;;;8.73;;
22284;SDS011;11311;52.192;20.900;2023-04-02T13:03:06;8.80;;;7.95;;
22284;SDS011;11311;52.192;20.900;2023-04-02T13:05:46;11.05;;;7.97;;
22284;SDS011;11311;52.192;20.900;2023-04-02T13:08:18;8.45;;;7.35;;
22284;SDS011;11311;52.192;20.900;2023-04-02T13:10:53;11.02;;;7.85;;
22284;SDS011;11311;52.192;20.900;2023-04-02T13:13:28;10.15;;;8.38;;
22284;SDS011;11311;52.192;20.900;2023-04-02T13:16:02;10.40;;;7.97;;
22284;SDS011;11311;52.192;20.900;2023-04-02T13:18:36;9.38;;;7.88;;
22284;SDS011;11311;52.192;20.900;2023-04-02T13:21:06;9.68;;;7.50;;
22284;SDS011;11311;52.192;20.900;2023-04-02T13:23:49;12.82;;;8.77;;
22284;SDS011;11311;52.192;20.900;2023-04-02T13:26:19;8.50;;;7.60;;
22284;SDS011;11311;52.192;20.900;2023-04-02T13:28:57;9.55;;;8.15;;
22284;SDS011;11311;52.192;20.900;2023-04-02T13:31:27;6.90;;;6.20;;
22284;SDS011;11311;52.192;20.900;2023-04-02T13:33:57;8.53;;;7.63;;
22284;SDS011;11311;52.192;20.900;2023-04-02T13:36:26;8.57;;;7.72;;
22284;SDS011;11311;52.192;20.900;2023-04-02T13:38:55;8.30;;;6.57;;
22284;SDS011;11311;52.192;20.900;2023-04-02T13:41:25;7.85;;;7.03;;
22284;SDS011;11311;52.192;20.900;2023-04-02T13:43:54;9.90;;;8.38;;
22284;SDS011;11311;52.192;20.900;2023-04-02T13:46:28;9.18;;;8.00;;
22284;SDS011;11311;52.192;20.900;2023-04-02T13:48:58;8.77;;;7.43;;
22284;SDS011;11311;52.192;20.900;2023-04-02T13:51:30;10.83;;;7.83;;
22284;SDS011;11311;52.192;20.900;2023-04-02T13:54:02;8.57;;;7.68;;
22284;SDS011;11311;52.192;20.900;2023-04-02T13:56:35;10.45;;;8.80;;
22284;SDS011;11311;52.192;20.900;2023-04-02T13:59:05;8.10;;;7.30;;
22284;SDS011;11311;52.192;20.900;2023-04-02T14:01:34;9.98;;;7.47;;
22284;SDS011;11311;52.192;20.900;2023-04-02T14:04:03;8.75;;;7.80;;
22284;SDS011;11311;52.192;20.900;2023-04-02T14:06:43;9.40;;;7.65;;
22284;SDS011;11311;52.192;20.900;2023-04-02T14:09:20;9.70;;;5.70;;
22284;SDS011;11311;52.192;20.900;2023-04-02T14:11:55;8.27;;;7.07;;
22284;SDS011;11311;52.192;20.900;2023-04-02T14:14:36;8.18;;;7.30;;
22284;SDS011;11311;52.192;20.900;2023-04-02T14:17:16;8.68;;;7.28;;
22284;SDS011;11311;52.192;20.900;2023-04-02T14:19:55;9.77;;;8.23;;
22284;SDS011;11311;52.192;20.900;2023-04-02T14:22:36;7.72;;;6.35;;
22284;SDS011;11311;52.192;20.900;2023-04-02T14:25:15;6.35;;;5.75;;
22284;SDS011;11311;52.192;20.900;2023-04-02T14:27:52;8.30;;;6.80;;
22284;SDS011;11311;52.192;20.900;2023-04-02T14:30:29;7.60;;;6.82;;
22284;SDS011;11311;52.192;20.900;2023-04-02T14:33:07;7.25;;;6.53;;
22284;SDS011;11311;52.192;20.900;2023-04-02T14:35:40;6.47;;;5.78;;
22284;SDS011;11311;52.192;20.900;2023-04-02T14:38:12;7.03;;;6.32;;
22284;SDS011;11311;52.192;20.900;2023-04-02T14:40:46;7.57;;;6.80;;
22284;SDS011;11311;52.192;20.900;2023-04-02T14:43:19;7.90;;;7.18;;
22284;SDS011;11311;52.192;20.900;2023-04-02T14:45:56;7.72;;;6.38;;
22284;SDS011;11311;52.192;20.900;2023-04-02T14:48:29;9.07;;;8.15;;
22284;SDS011;11311;52.192;20.900;2023-04-02T14:51:06;7.00;;;6.30;;
22284;SDS011;11311;52.192;20.900;2023-04-02T14:53:43;9.93;;;7.35;;
22284;SDS011;11311;52.192;20.900;2023-04-02T14:56:20;8.10;;;6.90;;
22284;SDS011;11311;52.192;20.900;2023-04-02T14:58:51;11.73;;;7.15;;
22284;SDS011;11311;52.192;20.900;2023-04-02T15:01:26;10.13;;;7.78;;
22284;SDS011;11311;52.192;20.900;2023-04-02T15:04:00;7.93;;;7.05;;
22284;SDS011;11311;52.192;20.900;2023-04-02T15:06:32;8.50;;;6.85;;
22284;SDS011;11311;52.192;20.900;2023-04-02T15:09:04;7.47;;;6.70;;
22284;SDS011;11311;52.192;20.900;2023-04-02T15:11:36;8.63;;;7.03;;
22284;SDS011;11311;52.192;20.900;2023-04-02T15:14:10;8.32;;;7.20;;
22284;SDS011;11311;52.192;20.900;2023-04-02T15:16:43;8.13;;;7.25;;
22284;SDS011;11311;52.192;20.900;2023-04-02T15:19:13;7.75;;;6.95;;
22284;SDS011;11311;52.192;20.900;2023-04-02T15:24:39;11.23;;;8.95;;
22284;SDS011;11311;52.192;20.900;2023-04-02T15:27:14;8.25;;;7.45;;
22284;SDS011;11311;52.192;20.900;2023-04-02T15:29:53;11.55;;;8.02;;
22284;SDS011;11311;52.192;20.900;2023-04-02T15:32:29;10.63;;;7.97;;
22284;SDS011;11311;52.192;20.900;2023-04-02T15:35:11;12.07;;;8.63;;
22284;SDS011;11311;52.192;20.900;2023-04-02T15:37:48;10.70;;;8.05;;
22284;SDS011;11311;52.192;20.900;2023-04-02T15:43:15;8.05;;;7.13;;
22284;SDS011;11311;52.192;20.900;2023-04-02T15:45:56;10.07;;;8.07;;
22284;SDS011;11311;52.192;20.900;2023-04-02T15:48:48;8.93;;;7.65;;
22284;SDS011;11311;52.192;20.900;2023-04-02T15:51:24;11.45;;;8.35;;
22284;SDS011;11311;52.192;20.900;2023-04-02T15:54:08;10.00;;;8.02;;